createdAt,value
2023-03-02T00:01:52.818Z,-0.30
2023-03-02T00:04:27.597Z,-0.20
2023-03-02T00:07:00.537Z,-0.30
2023-03-02T00:09:28.761Z,-0.20
2023-03-02T00:14:25.361Z,-0.20
2023-03-02T00:16:52.933Z,-0.10
2023-03-02T00:21:49.554Z,-0.10
2023-03-02T00:39:06.099Z,-0.10
2023-03-02T00:41:33.709Z,-0.20
2023-03-02T00:53:52.732Z,0.10
2023-03-02T00:56:20.226Z,0.70
2023-03-02T01:06:22.127Z,-0.10
2023-03-02T01:11:21.778Z,0.20
2023-03-02T01:13:50.334Z,0.20
2023-03-02T01:16:18.683Z,0.30
2023-03-02T01:21:16.459Z,0.30
2023-03-02T01:45:59.487Z,0.60
2023-03-02T01:51:33.841Z,0.50
2023-03-02T01:54:11.021Z,1.30
2023-03-02T01:56:40.728Z,0.60
2023-03-02T01:59:12.275Z,0.70
2023-03-02T02:01:43.125Z,0.70
2023-03-02T02:06:52.627Z,0.70
2023-03-02T02:09:23.548Z,0.80
2023-03-02T02:24:44.639Z,0.70
2023-03-02T02:27:13.517Z,0.70
2023-03-02T02:29:48.340Z,0.70
2023-03-02T02:32:27.662Z,0.70
2023-03-02T02:35:16.777Z,0.70
2023-03-02T02:37:49.904Z,0.80
2023-03-02T02:40:41.696Z,0.80
2023-03-02T02:43:14.445Z,0.80
2023-03-02T02:48:16.772Z,0.80
2023-03-02T02:53:18.387Z,0.90
2023-03-02T02:55:48.496Z,0.90
2023-03-02T02:58:25.344Z,0.90
2023-03-02T03:03:33.737Z,0.90
2023-03-02T03:06:13.387Z,1.00
2023-03-02T03:08:43.911Z,1.00
2023-03-02T03:11:24.188Z,1.00
2023-03-02T03:14:00.774Z,1.00
2023-03-02T03:16:31.013Z,1.00
2023-03-02T03:19:30.460Z,1.00
2023-03-02T03:22:01.046Z,1.00
2023-03-02T03:24:34.243Z,1.00
2023-03-02T03:27:05.633Z,0.90
2023-03-02T03:29:38.431Z,1.00
2023-03-02T03:34:41.104Z,1.00
2023-03-02T03:39:56.749Z,1.40
2023-03-02T03:42:24.257Z,1.10
2023-03-02T04:00:08.718Z,1.10
2023-03-02T04:05:11.657Z,1.10
2023-03-02T04:07:40.340Z,1.10
2023-03-02T04:10:09.579Z,1.10
2023-03-02T04:12:40.597Z,1.10
2023-03-02T04:15:14.975Z,1.00
2023-03-02T04:20:17.422Z,1.00
2023-03-02T04:22:51.212Z,1.00
2023-03-02T04:25:22.919Z,1.00
2023-03-02T04:30:25.855Z,1.00
2023-03-02T04:55:20.278Z,1.00
2023-03-02T05:00:17.160Z,1.00
2023-03-02T05:05:23.123Z,0.90
2023-03-02T05:13:05.743Z,1.00
2023-03-02T05:15:38.832Z,1.00
2023-03-02T05:18:09.589Z,1.00
2023-03-02T05:23:08.622Z,1.10
2023-03-02T05:25:37.571Z,0.90
2023-03-02T06:30:15.210Z,1.50
2023-03-02T08:26:36.002Z,3.70
2023-03-02T08:29:03.997Z,4.40
2023-03-02T08:51:24.670Z,7.40
2023-03-02T08:53:55.318Z,8.10
2023-03-02T08:56:24.037Z,9.10
2023-03-02T08:58:53.020Z,9.50
2023-03-02T09:01:23.627Z,10.50
2023-03-02T09:06:19.491Z,11.30
2023-03-02T09:11:15.494Z,10.30
2023-03-02T09:18:39.847Z,13.90
2023-03-02T09:21:07.115Z,13.70
2023-03-02T09:23:36.627Z,13.50
2023-03-02T09:28:32.285Z,14.10
2023-03-02T09:31:01.552Z,13.60
2023-03-02T09:33:30.263Z,13.60
2023-03-02T09:35:57.977Z,13.40
2023-03-02T09:38:25.529Z,13.50
2023-03-02T09:41:08.775Z,15.20
2023-03-02T09:44:13.796Z,14.00
2023-03-02T09:46:52.239Z,13.20
2023-03-02T09:49:55.304Z,12.60
2023-03-02T09:52:31.700Z,12.50
2023-03-02T09:55:22.492Z,12.00
2023-03-02T09:57:50.382Z,12.10
2023-03-02T10:00:37.350Z,13.10
2023-03-02T10:03:19.204Z,13.60
2023-03-02T10:05:49.469Z,14.10
2023-03-02T10:08:29.211Z,14.30
2023-03-02T10:11:17.047Z,13.70
2023-03-02T10:13:52.545Z,13.70
2023-03-02T10:16:33.957Z,11.90
2023-03-02T10:19:13.860Z,12.10
2023-03-02T10:21:45.376Z,11.40
2023-03-02T10:24:21.341Z,10.80
2023-03-02T10:26:54.442Z,10.30
2023-03-02T10:29:43.627Z,9.90
2023-03-02T10:32:24.248Z,9.70
2023-03-02T10:34:54.641Z,10.70
2023-03-02T10:37:25.542Z,11.00
2023-03-02T10:39:53.322Z,11.70
2023-03-02T10:42:28.725Z,11.80
2023-03-02T10:45:17.822Z,11.40
2023-03-02T10:50:23.228Z,12.30
2023-03-02T10:53:00.189Z,12.30
2023-03-02T10:58:15.777Z,12.20
2023-03-02T11:03:22.701Z,11.60
2023-03-02T11:08:24.406Z,12.70
2023-03-02T11:11:01.664Z,12.50
2023-03-02T11:16:00.733Z,12.20
2023-03-02T11:18:31.337Z,13.00
2023-03-02T11:21:06.491Z,13.60
2023-03-02T11:23:41.292Z,14.10
2023-03-02T11:26:19.511Z,15.10
2023-03-02T11:29:34.743Z,14.60
2023-03-02T11:32:17.849Z,15.60
2023-03-02T11:37:37.895Z,15.80
2023-03-02T11:42:41.010Z,15.50
2023-03-02T11:45:18.388Z,14.90
2023-03-02T11:48:19.730Z,15.10
2023-03-02T11:51:00.764Z,15.50
2023-03-02T11:53:53.084Z,15.10
2023-03-02T11:58:56.291Z,15.30
2023-03-02T12:01:26.727Z,16.10
2023-03-02T12:09:11.299Z,17.10
2023-03-02T12:11:41.122Z,16.80
2023-03-02T12:14:27.112Z,17.60
2023-03-02T12:17:22.791Z,17.50
2023-03-02T12:19:56.124Z,17.70
2023-03-02T12:22:30.193Z,17.20
2023-03-02T12:25:19.297Z,17.70
2023-03-02T12:27:50.112Z,17.30
2023-03-02T12:30:24.535Z,16.80
2023-03-02T12:33:10.746Z,16.20
2023-03-02T12:35:38.807Z,16.30
2023-03-02T12:38:23.499Z,17.40
2023-03-02T12:40:59.729Z,17.40
2023-03-02T12:43:36.154Z,17.60
2023-03-02T12:46:26.194Z,17.50
2023-03-02T12:49:13.867Z,17.90
2023-03-02T12:51:47.316Z,18.70
2023-03-02T12:54:18.733Z,19.10
2023-03-02T12:56:47.724Z,18.70
2023-03-02T12:59:25.059Z,17.50
2023-03-02T13:01:52.542Z,17.60
2023-03-02T13:04:25.613Z,18.00
2023-03-02T13:06:54.583Z,18.10
2023-03-02T13:09:23.374Z,18.20
2023-03-02T13:11:54.844Z,18.40
2023-03-02T13:14:28.608Z,18.30
2023-03-02T13:17:00.216Z,18.00
2023-03-02T13:19:30.890Z,18.30
2023-03-02T13:22:00.075Z,17.80
2023-03-02T13:24:45.805Z,18.40
2023-03-02T13:27:19.601Z,18.50
2023-03-02T13:29:48.930Z,18.60
2023-03-02T13:32:24.602Z,18.60
2023-03-02T13:35:03.592Z,18.40
2023-03-02T13:37:40.510Z,18.00
2023-03-02T13:40:31.369Z,18.50
2023-03-02T13:42:59.277Z,18.30
2023-03-02T13:45:30.244Z,18.70
2023-03-02T13:47:59.954Z,18.50
2023-03-02T13:50:32.291Z,18.90
2023-03-02T13:53:05.624Z,19.20
2023-03-02T13:55:35.138Z,19.30
2023-03-02T13:58:03.150Z,19.20
2023-03-02T14:00:34.375Z,18.90
2023-03-02T14:03:02.031Z,18.60
2023-03-02T14:05:33.361Z,18.30
2023-03-02T14:08:01.179Z,18.00
2023-03-02T14:10:29.440Z,17.60
2023-03-02T14:13:02.470Z,18.10
2023-03-02T14:15:30.406Z,17.60
2023-03-02T14:17:57.754Z,17.00
2023-03-02T14:20:25.373Z,17.20
2023-03-02T14:22:52.784Z,16.60
2023-03-02T14:25:20.699Z,16.10
2023-03-02T14:27:48.227Z,15.90
2023-03-02T14:30:19.586Z,16.50
2023-03-02T14:32:47.630Z,16.00
2023-03-02T14:35:16.815Z,16.20
2023-03-02T14:37:48.106Z,15.40
2023-03-02T14:40:26.169Z,15.30
2023-03-02T14:42:54.354Z,15.30
2023-03-02T14:45:23.295Z,14.20
2023-03-02T14:47:50.708Z,14.40
2023-03-02T14:50:18.423Z,13.70
2023-03-02T14:52:52.112Z,12.80
2023-03-02T14:55:32.200Z,12.00
2023-03-02T14:58:04.325Z,11.50
2023-03-02T15:00:32.622Z,10.90
2023-03-02T15:03:00.095Z,10.50
2023-03-02T15:12:54.394Z,9.10
2023-03-02T15:17:51.312Z,9.00
2023-03-02T15:20:19.323Z,8.20
2023-03-02T15:25:15.147Z,8.70
2023-03-02T15:27:43.047Z,9.00
2023-03-02T16:39:23.756Z,4.80
2023-03-02T16:41:51.506Z,4.20
2023-03-02T16:54:15.921Z,4.30
2023-03-02T17:01:44.179Z,4.10
2023-03-02T17:06:59.621Z,3.80
2023-03-02T17:24:17.762Z,3.20
2023-03-02T17:29:15.282Z,3.10
2023-03-02T17:34:12.212Z,2.80
2023-03-02T17:44:06.139Z,2.50
2023-03-02T17:56:28.756Z,2.10
2023-03-02T17:58:58.725Z,2.00
2023-03-02T18:01:28.007Z,1.90
2023-03-02T18:03:56.668Z,1.90
2023-03-02T18:11:22.888Z,1.90
2023-03-02T18:38:36.832Z,1.40
2023-03-02T18:41:06.266Z,1.30
2023-03-02T18:43:39.478Z,1.30
2023-03-02T19:03:32.031Z,0.80
2023-03-02T19:06:00.133Z,0.90
2023-03-02T19:08:29.117Z,0.90
2023-03-02T19:18:25.253Z,0.60
2023-03-02T19:25:53.483Z,0.60
2023-03-02T20:31:09.354Z,-0.40
2023-03-02T20:33:44.870Z,-0.30
2023-03-02T20:36:22.062Z,-0.50
2023-03-02T21:11:24.613Z,-0.20
2023-03-02T21:24:11.943Z,-1.20
2023-03-02T21:26:41.726Z,-1.30
2023-03-02T21:29:11.797Z,-1.50
2023-03-02T21:31:44.007Z,-1.00
2023-03-02T21:34:13.913Z,-1.10
2023-03-02T22:06:28.633Z,-1.20
2023-03-02T22:08:57.619Z,-1.10
2023-03-02T22:11:34.551Z,-1.10
2023-03-02T22:14:13.624Z,-1.30
2023-03-02T22:29:32.684Z,-0.80
2023-03-02T22:32:24.613Z,-1.00
2023-03-02T22:39:56.682Z,-0.70
2023-03-02T22:42:27.729Z,-0.70
2023-03-02T22:45:21.967Z,-0.70
2023-03-02T22:50:27.152Z,-0.50
2023-03-02T23:03:19.061Z,-0.50
2023-03-02T23:10:58.661Z,-0.40
2023-03-02T23:13:36.593Z,-0.40
2023-03-02T23:16:32.073Z,-0.40
2023-03-02T23:21:41.241Z,-0.40
2023-03-02T23:24:09.141Z,-0.50
